createdAt,value
2019-05-15T00:05:51.946Z,97881.02
2019-05-15T00:08:20.681Z,97877.11
2019-05-15T00:10:49.402Z,97884.44
2019-05-15T00:13:18.539Z,97888.73
2019-05-15T00:15:48.142Z,97893.91
2019-05-15T00:18:18.586Z,97894.70
2019-05-15T00:20:49.646Z,97894.31
2019-05-15T00:23:18.407Z,97895.69
2019-05-15T00:25:48.786Z,97890.08
2019-05-15T00:28:18.544Z,97890.48
2019-05-15T00:30:48.155Z,97889.70
2019-05-15T00:33:19.130Z,97889.69
2019-05-15T00:35:48.540Z,97895.70
2019-05-15T00:38:18.645Z,97893.57
2019-05-15T00:40:49.579Z,97900.52
2019-05-15T00:43:18.400Z,97893.99
2019-05-15T00:45:48.818Z,97899.19
2019-05-15T00:48:18.336Z,97896.27
2019-05-15T00:50:48.588Z,97895.48
2019-05-15T00:53:19.549Z,97894.17
2019-05-15T00:55:48.644Z,97894.20
2019-05-15T00:58:19.893Z,97890.41
2019-05-15T01:00:49.134Z,97886.98
2019-05-15T01:03:18.338Z,97888.33
2019-05-15T01:05:48.051Z,97884.89
2019-05-15T01:08:19.213Z,97886.65
2019-05-15T01:10:48.891Z,97877.55
2019-05-15T01:13:18.978Z,97873.22
2019-05-15T01:15:48.951Z,97878.42
2019-05-15T01:18:18.829Z,97876.28
2019-05-15T01:20:49.306Z,97875.41
2019-05-15T01:23:18.729Z,97866.72
2019-05-15T01:25:48.244Z,97870.65
2019-05-15T01:28:18.409Z,97867.16
2019-05-15T01:30:48.687Z,97864.13
2019-05-15T01:33:18.937Z,97867.16
2019-05-15T01:35:48.747Z,97861.51
2019-05-15T01:38:18.680Z,97862.84
2019-05-15T01:40:48.543Z,97860.22
2019-05-15T01:43:18.672Z,97855.88
2019-05-15T01:45:48.369Z,97848.95
2019-05-15T01:48:18.951Z,97851.16
2019-05-15T01:50:49.312Z,97847.69
2019-05-15T01:53:18.693Z,97852.45
2019-05-15T01:55:48.327Z,97855.94
2019-05-15T01:58:18.703Z,97858.11
2019-05-15T02:00:48.336Z,97856.80
2019-05-15T02:05:54.993Z,97859.00
2019-05-15T02:08:23.825Z,97852.91
2019-05-15T02:10:52.562Z,97844.23
2019-05-15T02:13:21.294Z,97845.55
2019-05-15T02:15:50.063Z,97847.72
2019-05-15T02:18:19.329Z,97850.73
2019-05-15T02:20:49.327Z,97843.80
2019-05-15T02:23:18.926Z,97851.17
2019-05-15T02:25:48.206Z,97851.18
2019-05-15T02:28:18.395Z,97852.94
2019-05-15T02:30:50.492Z,97844.66
2019-05-15T02:33:18.954Z,97845.08
2019-05-15T02:35:50.102Z,97845.54
2019-05-15T02:38:19.986Z,97848.99
2019-05-15T02:40:49.413Z,97843.80
2019-05-15T02:43:19.188Z,97842.92
2019-05-15T02:45:50.841Z,97842.52
2019-05-15T02:48:19.923Z,97841.20
2019-05-15T02:50:50.119Z,97843.79
2019-05-15T02:53:19.186Z,97840.31
2019-05-15T02:55:49.592Z,97837.26
2019-05-15T02:58:21.143Z,97837.27
2019-05-15T03:00:53.165Z,97840.73
2019-05-15T03:03:20.646Z,97840.75
2019-05-15T03:05:49.968Z,97839.00
2019-05-15T03:08:19.549Z,97841.17
2019-05-15T03:10:49.618Z,97852.87
2019-05-15T03:13:18.950Z,97848.98
2019-05-15T03:15:48.902Z,97845.08
2019-05-15T03:18:19.409Z,97843.36
2019-05-15T03:20:50.158Z,97840.73
2019-05-15T03:23:19.987Z,97844.21
2019-05-15T03:25:49.173Z,97846.37
2019-05-15T03:28:19.099Z,97852.41
2019-05-15T03:31:14.320Z,97852.86
2019-05-15T03:33:27.117Z,97855.00
2019-05-15T03:35:54.229Z,97853.29
2019-05-15T03:38:19.706Z,97858.48
2019-05-15T03:40:49.774Z,97864.12
2019-05-15T03:43:18.937Z,97863.25
2019-05-15T03:45:49.332Z,97863.70
2019-05-15T03:48:19.699Z,97864.12
2019-05-15T03:50:49.041Z,97867.63
2019-05-15T03:53:19.248Z,97868.06
2019-05-15T03:55:48.994Z,97865.47
2019-05-15T03:58:21.437Z,97861.55
2019-05-15T04:00:49.834Z,97865.45
2019-05-15T04:03:20.170Z,97865.41
2019-05-15T04:05:49.793Z,97865.38
2019-05-15T04:08:19.442Z,97862.77
2019-05-15T04:10:48.945Z,97872.29
2019-05-15T04:13:19.658Z,97870.55
2019-05-15T04:15:50.131Z,97868.78
2019-05-15T04:18:20.035Z,97856.20
2019-05-15T04:20:49.458Z,97862.66
2019-05-15T04:23:23.474Z,97860.91
2019-05-15T04:25:53.888Z,97858.27
2019-05-15T04:28:23.295Z,97856.04
2019-05-15T04:30:52.136Z,97856.47
2019-05-15T04:33:20.845Z,97856.47
2019-05-15T04:35:49.851Z,97854.28
2019-05-15T04:38:19.602Z,97854.70
2019-05-15T04:40:50.117Z,97852.58
2019-05-15T04:43:19.528Z,97857.34
2019-05-15T04:45:49.782Z,97858.67
2019-05-15T04:48:19.956Z,97857.30
2019-05-15T04:50:49.686Z,97848.56
2019-05-15T04:53:19.267Z,97845.51
2019-05-15T04:55:49.146Z,97851.98
2019-05-15T04:58:20.744Z,97861.09
2019-05-15T05:00:53.743Z,97858.89
2019-05-15T05:03:22.541Z,97851.45
2019-05-15T05:05:51.734Z,97849.55
2019-05-15T05:08:21.024Z,97845.94
2019-05-15T05:10:50.170Z,97843.05
2019-05-15T05:13:19.738Z,97849.53
2019-05-15T05:15:50.292Z,97843.58
2019-05-15T05:18:19.569Z,97847.68
2019-05-15T05:20:48.828Z,97848.36
2019-05-15T05:23:19.266Z,97858.08
2019-05-15T05:25:49.127Z,97867.27
2019-05-15T05:28:18.381Z,97869.31
2019-05-15T05:30:48.187Z,97873.34
2019-05-15T05:33:18.422Z,97875.20
2019-05-15T05:35:48.514Z,97866.98
2019-05-15T05:38:19.282Z,97865.63
2019-05-15T05:40:49.650Z,97865.66
2019-05-15T05:43:19.050Z,97872.08
2019-05-15T05:45:49.248Z,97872.56
2019-05-15T05:48:18.843Z,97875.24
2019-05-15T05:50:49.557Z,97874.31
2019-05-15T05:53:20.846Z,97873.87
2019-05-15T05:55:52.795Z,97873.81
2019-05-15T05:58:19.863Z,97875.50
2019-05-15T06:00:49.778Z,97875.28
2019-05-15T06:03:19.635Z,97873.56
2019-05-15T06:05:49.719Z,97867.59
2019-05-15T06:08:19.484Z,97878.94
2019-05-15T06:10:49.604Z,97874.16
2019-05-15T06:13:18.847Z,97864.78
2019-05-15T06:15:48.889Z,97867.69
2019-05-15T06:18:19.471Z,97870.54
2019-05-15T06:20:49.719Z,97869.52
2019-05-15T06:23:23.186Z,97873.70
2019-05-15T06:25:50.009Z,97877.27
2019-05-15T06:28:20.152Z,97880.00
2019-05-15T06:30:49.166Z,97877.45
2019-05-15T06:33:18.698Z,97877.09
2019-05-15T06:35:48.843Z,97866.17
2019-05-15T06:38:19.608Z,97866.95
2019-05-15T06:40:49.282Z,97861.84
2019-05-15T06:43:19.138Z,97866.13
2019-05-15T06:45:49.020Z,97870.14
2019-05-15T06:48:18.444Z,97875.09
2019-05-15T06:50:48.926Z,97873.13
2019-05-15T06:53:19.293Z,97870.88
2019-05-15T06:55:48.824Z,97881.08
2019-05-15T06:58:19.208Z,97878.92
2019-05-15T07:00:49.230Z,97871.07
2019-05-15T07:03:25.172Z,97871.68
2019-05-15T07:05:50.682Z,97870.45
2019-05-15T07:08:19.565Z,97870.00
2019-05-15T07:10:48.862Z,97858.60
2019-05-15T07:13:18.213Z,97863.95
2019-05-15T07:15:49.504Z,97853.19
2019-05-15T07:18:19.915Z,97846.20
2019-05-15T07:20:49.150Z,97851.63
2019-05-15T07:23:18.913Z,97853.45
2019-05-15T07:25:50.362Z,97857.81
2019-05-15T07:28:19.378Z,97860.54
2019-05-15T07:30:49.342Z,97859.59
2019-05-15T07:33:34.247Z,97855.62
2019-05-15T07:35:49.735Z,97844.25
2019-05-15T07:38:18.810Z,97837.61
2019-05-15T07:40:55.521Z,97833.09
2019-05-15T07:48:35.223Z,97824.74
2019-05-15T07:51:03.964Z,97824.41
2019-05-15T07:53:32.742Z,97832.70
2019-05-15T07:56:01.847Z,97834.07
2019-05-15T07:58:30.736Z,97837.71
2019-05-15T08:00:59.548Z,97840.80
2019-05-15T08:03:29.244Z,97832.08
2019-05-15T08:06:02.670Z,97825.81
2019-05-15T08:08:29.135Z,97830.07
2019-05-15T08:10:58.135Z,97823.41
2019-05-15T08:13:28.899Z,97827.31
2019-05-15T08:15:58.033Z,97832.57
2019-05-15T08:18:28.572Z,97833.74
2019-05-15T08:20:58.608Z,97830.02
2019-05-15T08:23:28.412Z,97830.92
2019-05-15T08:25:57.892Z,97837.68
2019-05-15T08:28:28.709Z,97840.56
2019-05-15T08:30:58.381Z,97826.38
2019-05-15T08:33:28.076Z,97823.12
2019-05-15T08:35:58.883Z,97826.77
2019-05-15T08:38:28.744Z,97838.30
2019-05-15T08:40:59.253Z,97835.52
2019-05-15T08:43:30.899Z,97837.43
2019-05-15T08:45:58.836Z,97838.16
2019-05-15T08:48:27.837Z,97841.78
2019-05-15T08:50:57.906Z,97844.84
2019-05-15T08:53:28.435Z,97846.31
2019-05-15T08:55:58.823Z,97841.94
2019-05-15T08:58:29.108Z,97845.23
2019-05-15T09:00:58.896Z,97843.39
2019-05-15T09:03:28.635Z,97842.42
2019-05-15T09:05:59.053Z,97842.92
2019-05-15T09:10:58.700Z,97835.25
2019-05-15T09:13:29.200Z,97831.75
2019-05-15T09:15:58.894Z,97827.88
2019-05-15T09:18:28.328Z,97821.64
2019-05-15T09:20:59.337Z,97818.52
2019-05-15T09:23:29.024Z,97820.58
2019-05-15T09:25:58.052Z,97829.13
2019-05-15T09:28:29.275Z,97825.95
2019-05-15T09:30:59.037Z,97831.22
2019-05-15T09:33:28.578Z,97827.41
2019-05-15T09:35:58.322Z,97821.64
2019-05-15T09:38:29.010Z,97817.36
2019-05-15T09:40:58.581Z,97824.17
2019-05-15T09:43:28.529Z,97817.64
2019-05-15T09:45:58.298Z,97816.55
2019-05-15T09:48:28.716Z,97803.29
2019-05-15T09:50:58.688Z,97797.16
2019-05-15T09:53:28.539Z,97796.92
2019-05-15T09:55:59.877Z,97790.95
2019-05-15T09:58:30.283Z,97782.98
2019-05-15T10:00:58.536Z,97785.13
2019-05-15T10:03:28.239Z,97782.05
2019-05-15T10:05:57.258Z,97780.02
2019-05-15T10:08:29.045Z,97780.34
2019-05-15T10:10:56.438Z,97774.34
2019-05-15T10:13:25.159Z,97773.05
2019-05-15T10:15:53.866Z,97769.45
2019-05-15T10:18:22.588Z,97773.36
2019-05-15T10:20:51.307Z,97781.10
2019-05-15T10:23:20.179Z,97781.49
2019-05-15T10:25:48.881Z,97777.59
2019-05-15T10:28:19.106Z,97772.66
2019-05-15T10:30:49.659Z,97767.00
2019-05-15T10:33:19.608Z,97772.41
2019-05-15T10:35:49.250Z,97761.67
2019-05-15T10:38:19.419Z,97757.03
2019-05-15T10:41:00.061Z,97744.37
2019-05-15T10:43:20.533Z,97742.92
2019-05-15T10:45:50.212Z,97744.63
2019-05-15T10:48:19.451Z,97744.72
2019-05-15T10:50:48.259Z,97736.09
2019-05-15T10:53:19.044Z,97728.66
2019-05-15T10:55:49.458Z,97731.22
2019-05-15T10:58:22.014Z,97724.14
2019-05-15T11:00:49.640Z,97726.75
2019-05-15T11:03:20.033Z,97723.50
2019-05-15T11:05:49.276Z,97713.02
2019-05-15T11:08:18.869Z,97705.73
2019-05-15T11:10:49.522Z,97711.03
2019-05-15T11:13:19.116Z,97704.16
2019-05-15T11:15:49.343Z,97700.64
2019-05-15T11:18:18.375Z,97699.28
2019-05-15T11:20:48.682Z,97694.27
2019-05-15T11:23:19.958Z,97697.44
2019-05-15T11:25:48.715Z,97700.55
2019-05-15T11:28:17.751Z,97695.48
2019-05-15T11:30:49.017Z,97692.55
2019-05-15T11:33:18.842Z,97698.79
2019-05-15T11:35:58.068Z,97706.73
2019-05-15T11:38:19.456Z,97708.51
2019-05-15T11:40:48.537Z,97712.27
2019-05-15T11:43:19.699Z,97721.96
2019-05-15T11:45:48.214Z,97717.62
2019-05-15T11:48:20.207Z,97709.95
2019-05-15T11:50:47.737Z,97712.69
2019-05-15T11:53:18.981Z,97699.73
2019-05-15T11:55:48.047Z,97696.65
2019-05-15T11:58:18.931Z,97703.29
2019-05-15T12:00:49.016Z,97703.33
2019-05-15T12:03:19.071Z,97687.56
2019-05-15T12:05:47.958Z,97694.95
2019-05-15T12:08:18.568Z,97699.13
2019-05-15T12:10:47.161Z,97696.55
2019-05-15T12:13:15.874Z,97677.75
2019-05-15T12:15:44.594Z,97674.86
2019-05-15T12:18:13.379Z,97672.39
2019-05-15T12:20:42.084Z,97671.48
2019-05-15T12:23:10.828Z,97672.10
2019-05-15T12:25:39.892Z,97673.73
2019-05-15T12:28:09.602Z,97666.49
2019-05-15T12:33:09.969Z,97667.45
2019-05-15T12:35:40.069Z,97666.66
2019-05-15T12:38:10.340Z,97666.74
2019-05-15T13:00:43.103Z,97641.86
2019-05-15T13:03:11.820Z,97622.75
2019-05-15T13:05:40.542Z,97631.20
2019-05-15T13:08:09.259Z,97622.42
2019-05-15T13:10:38.710Z,97628.89
2019-05-15T13:13:09.375Z,97629.01
2019-05-15T13:15:41.147Z,97624.84
2019-05-15T13:18:13.815Z,97616.53
2019-05-15T13:20:39.045Z,97613.20
2019-05-15T13:23:09.237Z,97615.11
2019-05-15T13:25:39.570Z,97613.08
2019-05-15T13:28:09.126Z,97628.95
2019-05-15T13:30:41.242Z,97631.69
2019-05-15T13:33:09.775Z,97619.55
2019-05-15T13:35:38.992Z,97625.59
2019-05-15T13:38:09.960Z,97633.24
2019-05-15T13:40:42.109Z,97636.08
2019-05-15T13:43:08.777Z,97622.92
2019-05-15T13:45:38.778Z,97615.79
2019-05-15T13:48:09.019Z,97608.37
2019-05-15T13:50:40.397Z,97615.34
2019-05-15T13:53:10.549Z,97620.78
2019-05-15T13:55:42.427Z,97618.91
2019-05-15T13:58:09.348Z,97624.72
2019-05-15T14:00:39.032Z,97633.58
2019-05-15T14:03:09.255Z,97623.80
2019-05-15T14:05:38.805Z,97632.39
2019-05-15T14:08:07.803Z,97641.08
2019-05-15T14:10:38.632Z,97641.16
2019-05-15T14:13:07.289Z,97644.11
2019-05-15T14:15:38.249Z,97656.38
2019-05-15T14:18:08.578Z,97659.13
2019-05-15T14:20:38.675Z,97653.45
2019-05-15T14:23:08.664Z,97645.52
2019-05-15T14:25:38.878Z,97643.56
2019-05-15T14:28:08.892Z,97639.47
2019-05-15T14:30:38.040Z,97647.52
2019-05-15T14:33:08.510Z,97647.52
2019-05-15T14:35:37.916Z,97657.12
2019-05-15T14:38:10.172Z,97651.97
2019-05-15T14:40:37.391Z,97651.51
2019-05-15T14:43:08.710Z,97653.81
2019-05-15T14:45:38.593Z,97660.23
2019-05-15T14:48:08.907Z,97666.92
2019-05-15T14:50:38.427Z,97660.27
2019-05-15T14:53:09.644Z,97673.30
2019-05-15T14:55:43.948Z,97673.48
2019-05-15T14:58:08.636Z,97675.06
2019-05-15T15:00:41.093Z,97692.11
2019-05-15T15:03:09.716Z,97701.66
2019-05-15T15:05:38.774Z,97704.97
2019-05-15T15:08:20.336Z,97697.88
2019-05-15T15:10:38.739Z,97699.65
2019-05-15T15:13:09.485Z,97695.11
2019-05-15T15:15:38.177Z,97692.36
2019-05-15T15:18:08.330Z,97679.77
2019-05-15T15:20:38.126Z,97670.88
2019-05-15T15:23:08.529Z,97666.53
2019-05-15T15:25:39.751Z,97678.40
2019-05-15T15:28:08.633Z,97674.99
2019-05-15T15:30:38.406Z,97675.14
2019-05-15T15:33:08.559Z,97673.51
2019-05-15T15:35:38.301Z,97675.30
2019-05-15T15:38:12.726Z,97676.46
2019-05-15T15:40:38.901Z,97680.48
2019-05-15T15:43:09.386Z,97676.14
2019-05-15T15:45:39.275Z,97678.84
2019-05-15T15:48:08.593Z,97678.90
2019-05-15T15:50:38.343Z,97689.17
2019-05-15T15:53:08.790Z,97700.17
2019-05-15T15:55:38.576Z,97703.20
2019-05-15T15:58:08.814Z,97706.26
2019-05-15T16:00:38.724Z,97717.25
2019-05-15T16:03:08.426Z,97742.05
2019-05-15T16:05:38.446Z,97759.48
2019-05-15T16:08:08.461Z,97767.99
2019-05-15T16:10:38.025Z,97762.33
2019-05-15T16:13:09.198Z,97766.72
2019-05-15T16:15:38.513Z,97767.56
2019-05-15T16:18:08.914Z,97771.22
2019-05-15T16:20:39.541Z,97793.33
2019-05-15T16:23:08.716Z,97796.77
2019-05-15T16:25:38.446Z,97788.27
2019-05-15T16:28:08.799Z,97794.45
2019-05-15T16:30:50.240Z,97799.53
2019-05-15T16:33:09.496Z,97796.59
2019-05-15T16:35:38.803Z,97802.23
2019-05-15T16:38:09.324Z,97790.29
2019-05-15T16:40:39.275Z,97787.88
2019-05-15T16:43:08.047Z,97797.02
2019-05-15T16:45:38.836Z,97813.06
2019-05-15T16:48:09.432Z,97823.20
2019-05-15T16:50:38.248Z,97833.33
2019-05-15T16:53:09.237Z,97836.17
2019-05-15T16:55:37.920Z,97832.23
2019-05-15T16:58:09.188Z,97836.79
2019-05-15T17:00:38.480Z,97840.09
2019-05-15T17:03:14.420Z,97838.00
2019-05-15T17:05:38.698Z,97846.21
2019-05-15T17:08:09.167Z,97845.56
2019-05-15T17:10:38.797Z,97843.34
2019-05-15T17:13:08.693Z,97837.80
2019-05-15T17:15:38.561Z,97842.43
2019-05-15T17:18:08.918Z,97845.56
2019-05-15T17:20:38.101Z,97852.50
2019-05-15T17:23:08.625Z,97861.36
2019-05-15T17:25:38.175Z,97858.16
2019-05-15T17:28:09.208Z,97854.83
2019-05-15T17:30:38.299Z,97854.94
2019-05-15T17:33:07.211Z,97852.06
2019-05-15T17:35:38.035Z,97857.78
2019-05-15T17:38:06.378Z,97858.31
2019-05-15T17:40:37.444Z,97862.22
2019-05-15T17:43:06.046Z,97873.25
2019-05-15T17:45:35.568Z,97866.84
2019-05-15T17:48:04.417Z,97866.21
2019-05-15T17:50:45.116Z,97865.95
2019-05-15T17:53:03.629Z,97871.50
2019-05-15T17:55:32.338Z,97872.69
2019-05-15T17:58:01.292Z,97875.95
2019-05-15T18:00:30.546Z,97884.28
2019-05-15T18:02:59.258Z,97883.33
2019-05-15T18:05:28.435Z,97883.33
2019-05-15T18:07:58.327Z,97882.37
2019-05-15T18:10:27.923Z,97884.73
2019-05-15T18:12:58.402Z,97885.69
2019-05-15T18:15:27.311Z,97880.03
2019-05-15T18:17:58.975Z,97876.25
2019-05-15T18:20:29.570Z,97876.02
2019-05-15T18:22:59.139Z,97880.31
2019-05-15T18:25:28.210Z,97885.02
2019-05-15T18:27:59.248Z,97880.31
2019-05-15T18:30:28.158Z,97880.77
2019-05-15T18:32:58.871Z,97886.10
2019-05-15T18:35:29.486Z,97884.47
2019-05-15T18:37:59.081Z,97889.28
2019-05-15T18:40:28.286Z,97886.27
2019-05-15T18:42:59.298Z,97888.89
2019-05-15T18:45:28.953Z,97889.34
2019-05-15T18:47:58.875Z,97889.34
2019-05-15T18:50:28.365Z,97893.34
2019-05-15T18:52:58.435Z,97896.44
2019-05-15T18:55:27.434Z,97890.03
2019-05-15T18:57:58.317Z,97897.02
2019-05-15T19:00:29.491Z,97899.91
2019-05-15T19:02:59.408Z,97895.52
2019-05-15T19:05:28.212Z,97896.39
2019-05-15T19:07:58.004Z,97892.88
2019-05-15T19:10:28.236Z,97892.16
2019-05-15T19:12:58.220Z,97892.09
2019-05-15T19:15:28.759Z,97891.02
2019-05-15T19:17:58.606Z,97898.09
2019-05-15T19:20:28.039Z,97886.41
2019-05-15T19:22:58.981Z,97883.58
2019-05-15T19:25:28.604Z,97879.27
2019-05-15T19:27:57.574Z,97888.83
2019-05-15T19:30:28.628Z,97887.21
2019-05-15T19:32:58.580Z,97890.65
2019-05-15T19:35:28.057Z,97888.50
2019-05-15T19:37:58.537Z,97885.91
2019-05-15T19:40:28.378Z,97874.93
2019-05-15T19:42:58.972Z,97879.77
2019-05-15T19:45:28.354Z,97878.38
2019-05-15T19:47:58.657Z,97878.33
2019-05-15T19:50:28.751Z,97867.05
2019-05-15T19:52:59.026Z,97865.27
2019-05-15T19:55:28.142Z,97867.85
2019-05-15T19:57:58.825Z,97865.61
2019-05-15T20:00:28.539Z,97862.56
2019-05-15T20:02:58.224Z,97859.56
2019-05-15T20:05:28.988Z,97854.23
2019-05-15T20:07:58.829Z,97847.67
2019-05-15T20:10:29.305Z,97854.53
2019-05-15T20:12:59.722Z,97851.02
2019-05-15T20:15:28.876Z,97855.22
2019-05-15T20:17:57.859Z,97857.83
2019-05-15T20:20:28.332Z,97859.27
2019-05-15T20:22:59.967Z,97865.95
2019-05-15T20:25:27.977Z,97867.42
2019-05-15T20:27:56.766Z,97866.73
2019-05-15T20:30:25.721Z,97866.19
2019-05-15T20:32:54.429Z,97873.66
2019-05-15T20:35:23.134Z,97863.58
2019-05-15T20:37:52.136Z,97868.70
2019-05-15T20:40:20.847Z,97873.12
2019-05-15T20:42:49.595Z,97870.56
2019-05-15T20:45:18.754Z,97870.17
2019-05-15T20:47:47.888Z,97863.33
2019-05-15T20:50:19.401Z,97863.33
2019-05-15T20:52:48.889Z,97868.14
2019-05-15T20:55:18.173Z,97868.58
2019-05-15T20:57:50.007Z,97870.73
2019-05-15T21:00:19.319Z,97861.19
2019-05-15T21:02:48.574Z,97862.13
2019-05-15T21:05:18.565Z,97859.88
2019-05-15T21:07:48.619Z,97860.39
2019-05-15T21:10:21.452Z,97860.78
2019-05-15T21:12:48.973Z,97857.75
2019-05-15T21:15:21.533Z,97856.84
2019-05-15T21:17:57.650Z,97855.45
2019-05-15T21:20:19.464Z,97855.45
2019-05-15T21:22:49.307Z,97860.27
2019-05-15T21:25:19.789Z,97863.70
2019-05-15T21:27:49.190Z,97867.59
2019-05-15T21:30:19.455Z,97864.08
2019-05-15T21:32:49.462Z,97867.09
2019-05-15T21:35:18.619Z,97867.03
2019-05-15T21:37:48.887Z,97872.30
2019-05-15T21:40:17.818Z,97870.50
2019-05-15T21:42:49.128Z,97869.22
2019-05-15T21:45:18.564Z,97870.25
2019-05-15T21:47:47.373Z,97861.50
2019-05-15T21:50:19.002Z,97863.29
2019-05-15T21:52:49.339Z,97865.45
2019-05-15T21:55:18.613Z,97866.77
2019-05-15T21:57:47.802Z,97867.17
2019-05-15T22:00:22.355Z,97855.86
2019-05-15T22:02:51.168Z,97860.28
2019-05-15T22:05:19.878Z,97854.20
2019-05-15T22:07:51.266Z,97852.87
2019-05-15T22:10:19.640Z,97849.83
2019-05-15T22:12:48.513Z,97854.17
2019-05-15T22:15:19.033Z,97854.63
2019-05-15T22:17:49.565Z,97847.67
2019-05-15T22:20:19.120Z,97857.20
2019-05-15T22:22:50.339Z,97862.50
2019-05-15T22:25:19.190Z,97855.02
2019-05-15T22:27:49.191Z,97860.17
2019-05-15T22:30:19.174Z,97854.11
2019-05-15T22:32:49.483Z,97854.93
2019-05-15T22:35:18.931Z,97852.33
2019-05-15T22:37:49.385Z,97854.93
2019-05-15T22:40:19.412Z,97858.87
2019-05-15T22:42:48.763Z,97852.80
2019-05-15T22:45:18.536Z,97847.95
2019-05-15T22:47:48.307Z,97849.25
2019-05-15T22:50:19.079Z,97844.49
2019-05-15T22:52:49.255Z,97848.80
2019-05-15T22:55:18.591Z,97846.63
2019-05-15T22:57:48.191Z,97852.44
2019-05-15T23:00:17.850Z,97840.67
2019-05-15T23:02:48.873Z,97846.38
2019-05-15T23:05:25.081Z,97839.82
2019-05-15T23:07:48.258Z,97844.60
2019-05-15T23:10:17.743Z,97838.88
2019-05-15T23:12:48.515Z,97847.52
2019-05-15T23:15:18.869Z,97854.48
2019-05-15T23:17:48.697Z,97843.63
2019-05-15T23:20:17.959Z,97844.47
2019-05-15T23:22:46.683Z,97841.41
2019-05-15T23:25:15.390Z,97843.59
2019-05-15T23:27:44.154Z,97831.84
2019-05-15T23:30:13.061Z,97823.17
2019-05-15T23:32:41.778Z,97813.16
2019-05-15T23:35:10.591Z,97807.04
2019-05-15T23:37:39.469Z,97804.44
2019-05-15T23:40:09.017Z,97795.74
2019-05-15T23:42:39.227Z,97797.09
2019-05-15T23:45:09.518Z,97788.95
2019-05-15T23:47:38.594Z,97795.86
2019-05-15T23:50:07.829Z,97796.27
2019-05-15T23:52:38.509Z,97800.19
2019-05-15T23:55:10.449Z,97797.17
2019-05-15T23:57:39.503Z,97788.90
